Time;durP1;ratioP1;P1;durP2;ratioP2;P2;SDS_P1;SDS_P2;PMS_P1;PMS_P2;Temp;Humidity;BMP_temperature;BMP_pressure;BME280_temperature;BME280_humidity;BME280_pressure;Samples;Min_cycle;Max_cycle;Signal;HPM_P1;HPM_P2
2021/11/19 00:00:25;;;;;;;26.00;14.23;;;;;;;-1.83;100.00;98092.59;4998993;28;20042;-66
2021/11/19 00:02:51;;;;;;;29.05;14.75;;;;;;;-1.85;100.00;98092.03;5002312;28;20161;-65
2021/11/19 00:05:17;;;;;;;29.02;15.30;;;;;;;-1.61;100.00;98092.56;4997861;28;20114;-65
2021/11/19 00:07:42;;;;;;;30.60;13.82;;;;;;;-1.40;100.00;98093.56;5002948;28;20077;-66
2021/11/19 00:10:09;;;;;;;32.35;14.13;;;;;;;-1.20;100.00;98092.94;4998405;28;20072;-65
2021/11/19 00:12:34;;;;;;;29.95;13.45;;;;;;;-1.10;100.00;98094.88;5001170;28;20034;-65
2021/11/19 00:15:00;;;;;;;30.30;13.65;;;;;;;-0.99;100.00;98089.34;5003194;28;20038;-66
2021/11/19 00:17:26;;;;;;;25.52;13.05;;;;;;;-0.95;100.00;98089.66;4994492;28;20056;-65
2021/11/19 00:19:51;;;;;;;25.67;12.48;;;;;;;-1.01;100.00;98088.81;5001454;28;20438;-65
2021/11/19 00:22:19;;;;;;;24.90;13.23;;;;;;;-1.11;100.00;98091.41;4993473;28;20045;-65
2021/11/19 00:24:45;;;;;;;22.55;12.35;;;;;;;-1.04;100.00;98091.19;5021038;28;20072;-65
2021/11/19 00:27:14;;;;;;;23.75;12.45;;;;;;;-0.99;100.00;98093.91;5012004;28;20041;-64
2021/11/19 00:29:39;;;;;;;23.87;13.17;;;;;;;-0.96;100.00;98086.13;5013321;28;20053;-65
2021/11/19 00:32:05;;;;;;;25.55;12.48;;;;;;;-0.89;100.00;98085.91;4994583;28;20332;-64
2021/11/19 00:34:31;;;;;;;24.80;12.32;;;;;;;-0.92;100.00;98082.94;4999947;28;20108;-64
2021/11/19 00:36:58;;;;;;;18.30;12.05;;;;;;;-1.00;100.00;98090.41;5002386;28;20050;-63
2021/11/19 00:39:26;;;;;;;23.67;11.63;;;;;;;-1.00;100.00;98089.59;4993921;28;20048;-64
2021/11/19 00:41:52;;;;;;;19.08;11.43;;;;;;;-0.97;100.00;98091.78;5002682;28;20041;-65
2021/11/19 00:44:18;;;;;;;24.48;11.55;;;;;;;-0.89;100.00;98088.59;4993824;28;20038;-64
2021/11/19 00:46:46;;;;;;;21.15;11.18;;;;;;;-0.64;100.00;98095.22;5002663;28;20041;-63
2021/11/19 00:49:13;;;;;;;27.00;11.95;;;;;;;-0.64;100.00;98093.34;4992835;28;20057;-64
2021/11/19 00:51:42;;;;;;;20.02;10.95;;;;;;;-0.41;100.00;98099.41;5005715;28;20054;-63
2021/11/19 00:54:08;;;;;;;23.27;12.95;;;;;;;-0.26;100.00;98094.09;4995214;28;20510;-61
2021/11/19 00:56:39;;;;;;;20.30;10.85;;;;;;;-0.39;100.00;98098.06;4998124;28;20049;-64
2021/11/19 00:59:06;;;;;;;22.10;10.80;;;;;;;-0.36;100.00;98093.22;4995159;28;20050;-62
2021/11/19 01:01:40;;;;;;;22.90;11.80;;;;;;;-0.23;100.00;98095.47;5001174;28;20042;-63
2021/11/19 01:04:08;;;;;;;21.05;11.88;;;;;;;-0.13;100.00;98090.09;4995755;28;20053;-63
2021/11/19 01:06:34;;;;;;;19.27;10.93;;;;;;;0.08;100.00;98087.50;4998897;28;20511;-63
2021/11/19 01:09:02;;;;;;;23.83;11.02;;;;;;;0.02;100.00;98086.69;5001824;28;20062;-64
2021/11/19 01:11:28;;;;;;;19.10;10.32;;;;;;;-0.01;100.00;98081.81;4986747;28;20042;-65
2021/11/19 01:13:56;;;;;;;19.27;10.43;;;;;;;0.12;100.00;98084.00;5011321;28;20034;-64
2021/11/19 01:16:53;;;;;;;24.30;11.23;;;;;;;0.30;100.00;98084.59;5008876;28;21588;-63
2021/11/19 01:19:25;;;;;;;19.83;10.90;;;;;;;0.40;100.00;98086.50;4971806;28;20415;-62
2021/11/19 01:22:07;;;;;;;23.73;11.80;;;;;;;0.47;100.00;98089.75;5001701;28;20104;-63
2021/11/19 01:24:33;;;;;;;22.60;10.82;;;;;;;0.43;100.00;98086.78;4988414;28;20050;-63
2021/11/19 01:27:00;;;;;;;23.73;10.88;;;;;;;0.47;100.00;98085.19;5001697;28;20046;-64
2021/11/19 01:29:25;;;;;;;21.15;11.80;;;;;;;0.59;100.00;98095.72;4998605;28;20069;-63
2021/11/19 01:31:53;;;;;;;19.67;10.55;;;;;;;0.69;100.00;98092.22;5001669;28;20062;-65
2021/11/19 01:34:19;;;;;;;23.35;12.18;;;;;;;0.80;100.00;98093.06;4997830;28;20072;-65
2021/11/19 01:36:46;;;;;;;20.73;11.35;;;;;;;0.75;100.00;98096.53;5005011;28;20049;-64
2021/11/19 01:39:15;;;;;;;24.85;12.50;;;;;;;0.76;100.00;98092.78;4997713;28;20042;-64
2021/11/19 01:41:45;;;;;;;23.73;11.98;;;;;;;0.76;100.00;98093.59;5001108;28;20541;-65
2021/11/19 01:44:25;;;;;;;23.33;11.52;;;;;;;0.79;100.00;98097.63;4993508;28;20042;-64
2021/11/19 01:46:53;;;;;;;25.73;13.23;;;;;;;0.86;100.00;98098.16;5000197;28;20042;-64
2021/11/19 01:49:20;;;;;;;23.15;12.15;;;;;;;0.88;100.00;98087.09;4986365;28;20045;-64
2021/11/19 01:51:51;;;;;;;23.75;12.02;;;;;;;0.81;100.00;98092.78;5000234;28;20046;-64
2021/11/19 01:54:24;;;;;;;33.40;13.35;;;;;;;0.72;100.00;98089.81;4994559;28;20395;-64
2021/11/19 01:57:09;;;;;;;26.25;13.13;;;;;;;0.51;100.00;98082.78;4996753;28;20499;-64
2021/11/19 01:59:37;;;;;;;30.20;14.25;;;;;;;0.54;100.00;98098.38;4992839;28;20056;-64
2021/11/19 02:02:15;;;;;;;33.90;13.80;;;;;;;0.76;100.00;98095.47;4996941;28;20115;-64
2021/11/19 02:04:49;;;;;;;34.65;14.18;;;;;;;0.84;100.00;98099.53;4999358;28;20406;-64
2021/11/19 02:07:22;;;;;;;32.97;14.05;;;;;;;0.87;100.00;98089.00;4994425;28;20037;-65
2021/11/19 02:10:00;;;;;;;31.33;14.25;;;;;;;0.90;100.00;98082.25;5003771;28;20372;-65
2021/11/19 02:12:53;;;;;;;33.10;15.02;;;;;;;0.88;100.00;98087.09;4999837;28;20074;-64
2021/11/19 02:15:24;;;;;;;34.47;15.10;;;;;;;0.84;100.00;98084.13;5001590;28;20041;-64
2021/11/19 02:17:55;;;;;;;32.17;14.65;;;;;;;0.87;100.00;98091.69;4993976;28;20048;-64
2021/11/19 02:20:29;;;;;;;38.67;14.98;;;;;;;0.98;100.00;98087.13;4994787;28;20042;-62
2021/11/19 02:23:15;;;;;;;34.45;15.80;;;;;;;0.99;100.00;98083.34;4999254;28;20041;-63
2021/11/19 02:25:52;;;;;;;35.33;15.52;;;;;;;1.01;100.00;98073.09;4998051;28;20046;-61
2021/11/19 02:28:23;;;;;;;38.20;15.80;;;;;;;0.98;100.00;98081.72;4990187;28;20443;-61
2021/11/19 02:31:13;;;;;;;35.88;15.98;;;;;;;0.89;100.00;98080.66;4998846;28;20124;-63
2021/11/19 02:33:42;;;;;;;37.55;15.40;;;;;;;0.91;100.00;98075.78;4968036;28;20102;-63
2021/11/19 02:36:12;;;;;;;40.67;16.00;;;;;;;0.83;100.00;98066.34;4993473;28;20040;-63
2021/11/19 02:38:58;;;;;;;36.08;15.63;;;;;;;0.75;100.00;98075.75;5000039;28;20064;-64
2021/11/19 02:41:27;;;;;;;85.53;23.75;;;;;;;0.72;100.00;98073.63;4988417;28;20046;-64
2021/11/19 02:43:56;;;;;;;39.10;17.95;;;;;;;0.68;100.00;98086.00;4994337;28;20045;-64
2021/11/19 02:46:25;;;;;;;41.08;16.70;;;;;;;0.91;100.00;98084.69;4993717;28;20174;-65
2021/11/19 02:48:51;;;;;;;38.58;17.02;;;;;;;1.05;100.00;98084.97;5000614;28;20340;-65
2021/11/19 02:51:17;;;;;;;82.93;18.67;;;;;;;1.02;100.00;98082.78;4994980;28;20129;-63
2021/11/19 02:53:45;;;;;;;75.57;20.52;;;;;;;0.72;100.00;98087.13;5001449;28;20042;-63
2021/11/19 02:56:12;;;;;;;107.30;19.38;;;;;;;0.57;100.00;98085.19;4994546;28;20048;-63
2021/11/19 02:58:42;;;;;;;65.53;18.30;;;;;;;0.48;100.00;98086.78;4998473;28;20564;-63
2021/11/19 03:01:16;;;;;;;;;;;;;;;0.59;100.00;98079.53;4995001;28;20050;-64
2021/11/19 03:03:46;;;;;;;164.60;20.52;;;;;;;0.47;100.00;98084.34;4999967;28;19918;-64
2021/11/19 03:06:12;;;;;;;138.48;20.17;;;;;;;0.30;100.00;98090.78;4999694;28;20043;-64
2021/11/19 03:08:39;;;;;;;118.40;22.05;;;;;;;0.27;100.00;98085.97;5006638;28;20140;-64
2021/11/19 03:11:05;;;;;;;50.97;18.83;;;;;;;0.28;100.00;98084.06;5001151;28;20046;-64
2021/11/19 03:13:35;;;;;;;61.25;19.98;;;;;;;0.37;100.00;98088.66;5002845;28;20046;-64
2021/11/19 03:16:02;;;;;;;238.02;24.45;;;;;;;0.26;100.00;98076.25;5000057;28;20415;-64
2021/11/19 03:18:28;;;;;;;200.90;24.75;;;;;;;0.07;100.00;98088.56;4997204;28;20069;-64
2021/11/19 03:20:57;;;;;;;217.82;27.73;;;;;;;-0.01;100.00;98082.63;5000014;28;20042;-65
2021/11/19 03:23:24;;;;;;;271.73;28.23;;;;;;;-0.01;100.00;98077.22;4992813;28;21068;-64
2021/11/19 03:25:50;;;;;;;221.13;29.10;;;;;;;0.02;100.00;98073.22;4998214;28;20068;-65
2021/11/19 03:28:19;;;;;;;81.82;25.63;;;;;;;0.12;100.00;98065.16;4994872;28;20507;-62
2021/11/19 03:30:46;;;;;;;;;;;;;;;0.31;100.00;98072.75;4999618;28;20054;-65
2021/11/19 03:33:17;;;;;;;175.27;27.33;;;;;;;0.44;100.00;98066.84;4988070;28;19921;-64
2021/11/19 03:35:43;;;;;;;82.00;24.30;;;;;;;0.76;100.00;98069.31;4999753;28;20042;-64
2021/11/19 03:38:09;;;;;;;83.00;26.83;;;;;;;0.88;100.00;98073.63;4994875;28;20140;-65
2021/11/19 03:40:38;;;;;;;97.30;26.38;;;;;;;1.00;100.00;98078.75;4999713;28;20126;-65
2021/11/19 03:43:13;;;;;;;83.82;27.77;;;;;;;1.05;100.00;98073.38;4997323;28;20104;-64
2021/11/19 03:45:45;;;;;;;205.43;28.77;;;;;;;0.91;100.00;98079.28;5003298;28;20411;-65
2021/11/19 03:48:12;;;;;;;70.13;24.33;;;;;;;1.06;100.00;98085.75;4996785;28;20045;-64
2021/11/19 03:50:46;;;;;;;65.00;23.75;;;;;;;1.16;100.00;98093.84;4995958;28;20074;-64
2021/11/19 03:53:14;;;;;;;81.57;25.77;;;;;;;1.31;100.00;98091.16;4997925;28;20042;-63
2021/11/19 03:55:46;;;;;;;62.08;21.42;;;;;;;1.35;100.00;98091.38;5003463;28;20049;-63
2021/11/19 03:58:12;;;;;;;69.75;22.30;;;;;;;1.42;100.00;98097.31;4992769;28;20045;-65
2021/11/19 04:00:41;;;;;;;65.50;22.17;;;;;;;1.44;100.00;98097.88;5003824;28;20064;-64
2021/11/19 04:03:09;;;;;;;64.35;22.08;;;;;;;1.50;100.00;98099.47;5008740;28;20042;-63
2021/11/19 04:05:35;;;;;;;110.95;22.52;;;;;;;1.43;100.00;98090.84;5010294;28;20148;-62
2021/11/19 04:08:01;;;;;;;62.75;21.63;;;;;;;1.56;100.00;98088.66;5000227;28;20038;-63
2021/11/19 04:10:27;;;;;;;69.15;21.90;;;;;;;1.56;100.00;98089.47;4989615;28;20133;-63
2021/11/19 04:12:54;;;;;;;54.03;20.77;;;;;;;1.56;100.00;98092.16;4997051;28;20114;-62
2021/11/19 04:15:24;;;;;;;64.93;21.63;;;;;;;1.66;100.00;98096.75;4989368;28;20054;-63
2021/11/19 04:17:50;;;;;;;62.72;21.08;;;;;;;1.81;100.00;98091.28;5002972;28;20042;-64
2021/11/19 04:20:17;;;;;;;49.72;20.73;;;;;;;1.83;100.00;98091.03;4993314;28;20133;-63
2021/11/19 04:22:43;;;;;;;58.10;21.85;;;;;;;1.79;100.00;98090.75;5002459;28;20438;-63
2021/11/19 04:25:11;;;;;;;80.53;22.40;;;;;;;1.80;100.00;98092.38;5003949;28;20046;-65
2021/11/19 04:27:38;;;;;;;55.33;21.42;;;;;;;1.66;100.00;98094.84;5010822;28;20048;-64
2021/11/19 04:30:07;;;;;;;60.55;21.88;;;;;;;1.55;100.00;98090.56;5003918;28;20046;-61
2021/11/19 04:32:33;;;;;;;58.20;21.43;;;;;;;1.64;100.00;98083.53;5006226;28;20477;-64
2021/11/19 04:34:58;;;;;;;54.83;20.80;;;;;;;1.70;100.00;98095.13;5000137;28;20384;-62
2021/11/19 04:37:25;;;;;;;56.47;20.58;;;;;;;1.83;100.00;98099.91;4997716;28;20066;-65
2021/11/19 04:39:51;;;;;;;50.22;20.55;;;;;;;1.92;100.00;98094.75;5004870;28;20044;-63
2021/11/19 04:42:17;;;;;;;113.78;21.02;;;;;;;1.80;100.00;98096.97;4993689;28;20172;-63
2021/11/19 04:44:43;;;;;;;50.35;19.58;;;;;;;1.78;100.00;98091.84;5002295;28;20054;-64
2021/11/19 04:47:08;;;;;;;55.58;19.15;;;;;;;1.84;100.00;98087.25;4996363;28;20184;-62
2021/11/19 04:49:34;;;;;;;51.58;18.95;;;;;;;1.76;100.00;98094.00;4998226;28;20572;-61
2021/11/19 04:52:02;;;;;;;50.08;19.98;;;;;;;1.77;100.00;98095.63;5001981;28;20042;-61
2021/11/19 04:54:27;;;;;;;53.17;19.45;;;;;;;1.81;100.00;98088.59;4998144;28;20046;-62
2021/11/19 04:56:54;;;;;;;47.08;18.40;;;;;;;1.82;100.00;98084.81;5001890;28;20568;-63
2021/11/19 04:59:21;;;;;;;47.25;18.92;;;;;;;1.76;100.00;98091.31;4993324;28;20042;-63
2021/11/19 05:01:53;;;;;;;52.67;20.63;;;;;;;1.76;100.00;98085.09;5000434;28;20045;-62
2021/11/19 05:04:18;;;;;;;48.05;19.83;;;;;;;1.81;100.00;98087.78;4996261;28;20045;-63
2021/11/19 05:06:44;;;;;;;55.90;21.35;;;;;;;1.90;100.00;98078.03;4999567;28;20107;-63
2021/11/19 05:09:11;;;;;;;75.18;20.67;;;;;;;1.94;100.00;98073.69;4985759;28;20042;-62
2021/11/19 05:11:44;;;;;;;42.83;19.83;;;;;;;1.94;100.00;98080.97;5001395;28;20045;-62
2021/11/19 05:14:10;;;;;;;101.13;20.75;;;;;;;1.85;100.00;98080.75;4996384;28;20084;-63
2021/11/19 05:16:36;;;;;;;44.05;19.98;;;;;;;1.80;100.00;98078.06;5001023;28;20100;-62
2021/11/19 05:19:04;;;;;;;43.20;19.30;;;;;;;1.84;100.00;98081.84;5001132;28;20037;-63
2021/11/19 05:21:30;;;;;;;45.85;20.98;;;;;;;1.89;100.00;98071.00;4992593;28;20042;-62
2021/11/19 05:23:55;;;;;;;83.90;19.33;;;;;;;1.95;100.00;98080.72;4997114;28;20394;-63
2021/11/19 05:26:22;;;;;;;97.40;21.15;;;;;;;1.76;100.00;98085.09;4994743;28;20187;-62
2021/11/19 05:28:48;;;;;;;84.65;19.60;;;;;;;1.61;100.00;98080.56;4997462;28;20041;-62
2021/11/19 05:31:15;;;;;;;66.35;19.75;;;;;;;1.63;100.00;98081.88;4991282;28;20731;-63
2021/11/19 05:33:42;;;;;;;56.88;20.70;;;;;;;1.70;100.00;98084.31;5001588;28;20069;-64
2021/11/19 05:36:09;;;;;;;145.77;23.40;;;;;;;1.67;100.00;98092.94;4995949;28;20395;-62
2021/11/19 05:38:37;;;;;;;85.43;22.17;;;;;;;1.50;100.00;98095.97;4997520;28;20038;-63
2021/11/19 05:41:06;;;;;;;51.30;20.23;;;;;;;1.72;100.00;98095.66;4999114;28;20034;-62
2021/11/19 05:43:34;;;;;;;50.60;21.95;;;;;;;1.89;100.00;98104.25;5001273;28;20207;-65
2021/11/19 05:46:01;;;;;;;53.53;22.63;;;;;;;2.02;100.00;98104.75;5003647;28;20033;-63
2021/11/19 05:48:26;;;;;;;48.47;20.95;;;;;;;2.08;100.00;98104.44;4997632;28;20030;-66
2021/11/19 05:50:52;;;;;;;49.40;22.65;;;;;;;2.11;100.00;98103.09;5001498;28;20049;-65
2021/11/19 05:53:20;;;;;;;54.10;21.63;;;;;;;2.19;100.00;98102.50;4991890;28;20041;-63
2021/11/19 05:55:47;;;;;;;48.78;21.58;;;;;;;2.33;100.00;98102.69;4999099;28;20041;-64
2021/11/19 05:58:14;;;;;;;43.85;19.45;;;;;;;2.46;100.00;98101.28;4991471;28;20698;-63
2021/11/19 06:00:44;;;;;;;49.70;21.75;;;;;;;2.59;100.00;98105.25;4998797;28;20034;-63
2021/11/19 06:03:10;;;;;;;45.28;22.08;;;;;;;2.60;100.00;98101.47;4995137;28;20042;-63
2021/11/19 06:05:36;;;;;;;51.75;20.13;;;;;;;2.64;100.00;98095.22;4999406;28;20042;-65
2021/11/19 06:08:02;;;;;;;48.40;20.20;;;;;;;2.67;100.00;98110.09;5002045;28;20517;-65
2021/11/19 06:10:30;;;;;;;50.67;20.65;;;;;;;2.66;100.00;98106.56;4982066;28;20042;-65
2021/11/19 06:13:04;;;;;;;46.80;21.30;;;;;;;2.70;100.00;98101.38;4999671;28;20042;-63
2021/11/19 06:15:32;;;;;;;43.35;21.23;;;;;;;2.68;100.00;98106.28;5004376;28;20053;-63
2021/11/19 06:18:07;;;;;;;42.45;19.35;;;;;;;2.70;100.00;98114.91;5005596;28;20038;-64
2021/11/19 06:20:40;;;;;;;41.25;19.15;;;;;;;2.69;100.00;98110.59;4998629;28;20150;-61
2021/11/19 06:23:14;;;;;;;40.85;19.23;;;;;;;2.74;100.00;98116.00;4995209;28;20037;-62
2021/11/19 06:25:42;;;;;;;124.90;20.13;;;;;;;2.39;100.00;98111.59;4993824;28;20434;-63
2021/11/19 06:28:12;;;;;;;110.72;21.33;;;;;;;2.09;100.00;98110.66;4995373;28;20030;-64
2021/11/19 06:30:38;;;;;;;378.50;86.05;;;;;;;1.84;100.00;98106.16;5000215;28;20038;-63
2021/11/19 06:33:04;;;;;;;218.65;25.42;;;;;;;1.70;100.00;98105.91;4996340;28;20041;-62
2021/11/19 06:35:31;;;;;;;144.75;31.92;;;;;;;1.72;100.00;98117.25;4996325;28;20046;-63
2021/11/19 06:37:56;;;;;;;61.85;26.80;;;;;;;1.79;100.00;98122.38;4998953;28;20180;-64
2021/11/19 06:40:25;;;;;;;63.20;26.00;;;;;;;1.86;100.00;98118.28;4995752;28;20736;-64
2021/11/19 06:42:52;;;;;;;59.65;25.95;;;;;;;2.06;100.00;98113.91;5000930;28;20050;-64
2021/11/19 06:45:19;;;;;;;98.63;24.98;;;;;;;2.12;100.00;98128.22;4993198;28;20034;-62
2021/11/19 06:47:45;;;;;;;55.58;23.25;;;;;;;2.23;100.00;98121.66;5005636;28;20045;-65
2021/11/19 06:50:14;;;;;;;78.80;25.40;;;;;;;2.26;100.00;98115.72;4992006;28;20219;-65
2021/11/19 06:52:40;;;;;;;97.82;24.13;;;;;;;2.25;100.00;98114.09;5003650;28;20046;-66
2021/11/19 06:55:08;;;;;;;70.30;23.70;;;;;;;2.29;100.00;98120.56;4999059;28;20049;-64
2021/11/19 06:57:34;;;;;;;57.92;22.38;;;;;;;2.55;100.00;98126.66;5000885;28;20430;-65
2021/11/19 07:00:00;;;;;;;55.15;21.50;;;;;;;2.63;100.00;98127.97;4998169;28;20037;-65
2021/11/19 07:02:26;;;;;;;52.28;22.52;;;;;;;2.78;100.00;98122.44;4994666;28;20133;-65
2021/11/19 07:04:51;;;;;;;48.83;24.02;;;;;;;2.86;100.00;98134.56;4998803;28;20129;-63
2021/11/19 07:07:17;;;;;;;80.47;22.45;;;;;;;2.63;100.00;98134.19;4991501;28;20073;-63
2021/11/19 07:09:45;;;;;;;76.45;21.95;;;;;;;2.48;100.00;98142.38;4996998;28;20910;-63
2021/11/19 07:12:12;;;;;;;169.00;23.60;;;;;;;2.19;100.00;98147.63;4993934;28;20129;-62
2021/11/19 07:14:39;;;;;;;110.38;25.75;;;;;;;2.15;100.00;98147.38;4999387;28;20042;-63
2021/11/19 07:17:07;;;;;;;110.05;28.33;;;;;;;2.10;100.00;98158.22;4996214;28;20406;-63
2021/11/19 07:19:33;;;;;;;120.57;28.17;;;;;;;2.02;100.00;98154.19;4986543;28;20108;-64
2021/11/19 07:21:59;;;;;;;88.03;28.73;;;;;;;2.02;100.00;98156.91;5003410;28;20038;-62
2021/11/19 07:24:26;;;;;;;136.52;30.52;;;;;;;2.10;100.00;98160.91;4997125;28;20376;-63
2021/11/19 07:26:52;;;;;;;107.25;33.67;;;;;;;2.13;100.00;98157.66;5003956;28;20439;-63
2021/11/19 07:29:17;;;;;;;131.50;29.75;;;;;;;2.00;100.00;98156.34;4996626;28;20073;-63
2021/11/19 07:31:43;;;;;;;129.93;34.38;;;;;;;1.87;100.00;98152.34;5003822;28;20048;-64
2021/11/19 07:34:08;;;;;;;153.07;28.63;;;;;;;1.67;100.00;98153.19;4997496;28;20446;-64
2021/11/19 07:36:34;;;;;;;169.40;29.48;;;;;;;1.66;100.00;98145.38;5002102;28;20625;-63
2021/11/19 07:38:59;;;;;;;280.65;34.15;;;;;;;1.57;100.00;98146.97;5008743;28;20061;-65
2021/11/19 07:41:26;;;;;;;237.70;35.75;;;;;;;1.56;100.00;98148.88;5001638;28;20037;-64
2021/11/19 07:43:52;;;;;;;341.73;37.95;;;;;;;1.64;100.00;98142.09;5007216;28;20187;-64
2021/11/19 07:46:21;;;;;;;150.50;45.55;;;;;;;1.76;100.00;98145.31;5009432;28;20772;-65
2021/11/19 07:48:47;;;;;;;;;;;;;;;2.00;100.00;98139.31;5014000;28;20133;-65
2021/11/19 07:51:16;;;;;;;90.40;28.60;;;;;;;2.14;100.00;98143.06;5007539;28;19972;-64
2021/11/19 07:53:43;;;;;;;155.43;36.15;;;;;;;2.23;100.00;98143.28;5005122;28;20049;-64
2021/11/19 07:56:10;;;;;;;121.82;30.98;;;;;;;2.24;100.00;98148.44;4999459;28;20070;-64
2021/11/19 07:58:36;;;;;;;79.03;27.90;;;;;;;2.26;100.00;98146.25;5000853;28;20042;-64
2021/11/19 08:01:03;;;;;;;88.63;28.52;;;;;;;2.39;100.00;98147.53;5005299;28;20407;-63
2021/11/19 08:03:29;;;;;;;75.45;28.42;;;;;;;2.60;100.00;98150.97;5006490;28;20041;-64
2021/11/19 08:05:57;;;;;;;75.57;28.58;;;;;;;2.77;100.00;98147.06;5007754;28;20073;-64
2021/11/19 08:08:24;;;;;;;74.13;28.13;;;;;;;2.89;100.00;98144.03;5004828;28;20453;-64
2021/11/19 08:10:50;;;;;;;103.55;29.00;;;;;;;2.82;100.00;98147.84;5010453;28;21148;-64
2021/11/19 08:13:17;;;;;;;76.55;26.67;;;;;;;2.90;100.00;98154.59;5005085;28;20041;-65
2021/11/19 08:15:43;;;;;;;71.22;28.35;;;;;;;2.97;100.00;98141.53;5000239;28;20514;-64
2021/11/19 08:18:15;;;;;;;70.80;25.90;;;;;;;3.01;100.00;98144.50;4991922;28;20041;-64
2021/11/19 08:20:43;;;;;;;67.38;24.75;;;;;;;2.88;100.00;98151.31;5000942;28;20038;-63
2021/11/19 08:23:14;;;;;;;55.10;23.88;;;;;;;2.79;100.00;98153.00;4993741;28;20124;-63
2021/11/19 08:25:40;;;;;;;55.50;23.52;;;;;;;3.03;100.00;98155.84;5007632;28;20046;-66
2021/11/19 08:28:05;;;;;;;53.38;22.45;;;;;;;3.10;100.00;98155.50;4998581;28;20108;-63
2021/11/19 08:30:34;;;;;;;55.22;22.42;;;;;;;3.26;100.00;98148.91;5002052;28;20046;-63
2021/11/19 08:33:02;;;;;;;54.55;23.00;;;;;;;3.36;100.00;98148.81;4999673;28;20518;-62
2021/11/19 08:35:29;;;;;;;53.33;22.38;;;;;;;3.46;100.00;98147.94;4998383;28;20075;-62
2021/11/19 08:37:55;;;;;;;51.08;22.77;;;;;;;3.47;100.00;98140.59;4996011;28;20042;-63
2021/11/19 08:40:22;;;;;;;44.58;21.52;;;;;;;3.52;100.00;98144.06;4997121;28;20419;-65
2021/11/19 08:42:47;;;;;;;46.30;21.50;;;;;;;3.30;100.00;98146.44;5001862;28;20395;-63
2021/11/19 08:45:18;;;;;;;61.78;25.38;;;;;;;3.13;100.00;98144.94;4995010;28;20046;-63
2021/11/19 08:47:45;;;;;;;47.53;21.70;;;;;;;3.23;100.00;98141.34;5002093;28;20099;-63
2021/11/19 08:50:13;;;;;;;49.25;20.98;;;;;;;3.36;100.00;98140.69;4993048;28;20107;-64
2021/11/19 08:52:38;;;;;;;47.42;21.58;;;;;;;3.52;100.00;98145.97;5000474;28;20082;-63
2021/11/19 08:55:07;;;;;;;45.15;22.10;;;;;;;3.62;100.00;98149.41;4998617;28;20127;-63
2021/11/19 08:57:33;;;;;;;43.38;20.63;;;;;;;3.68;100.00;98146.66;5000987;28;20084;-64
2021/11/19 08:59:58;;;;;;;46.15;19.70;;;;;;;3.73;100.00;98143.88;5001890;28;20034;-64
2021/11/19 09:02:25;;;;;;;47.55;23.80;;;;;;;3.44;100.00;98142.00;5001367;28;20577;-63
2021/11/19 09:04:51;;;;;;;44.67;23.02;;;;;;;3.62;100.00;98143.19;4994663;28;20487;-64
2021/11/19 09:07:17;;;;;;;46.70;23.98;;;;;;;3.71;100.00;98148.75;4985910;28;20041;-63
2021/11/19 09:09:44;;;;;;;46.33;21.80;;;;;;;3.83;100.00;98147.31;4994570;28;20037;-62
2021/11/19 09:12:10;;;;;;;37.75;19.77;;;;;;;3.86;100.00;98142.41;4984962;28;20503;-62
2021/11/19 09:14:36;;;;;;;44.28;21.77;;;;;;;3.74;100.00;98142.78;4991616;28;20057;-63
2021/11/19 09:17:18;;;;;;;42.47;20.48;;;;;;;3.74;100.00;98148.19;4992145;28;20084;-63
2021/11/19 09:20:07;;;;;;;38.85;18.83;;;;;;;3.92;100.00;98142.03;4995186;28;20049;-61
2021/11/19 09:22:52;;;;;;;43.97;19.48;;;;;;;4.05;100.00;98147.88;4990808;28;20971;-63
2021/11/19 09:25:20;;;;;;;45.05;21.65;;;;;;;3.98;100.00;98154.47;4986287;28;20038;-64
2021/11/19 09:27:46;;;;;;;65.88;29.50;;;;;;;4.01;100.00;98153.84;4993212;28;20542;-64
2021/11/19 09:30:16;;;;;;;43.80;20.35;;;;;;;4.12;100.00;98154.56;4988596;28;20050;-62
2021/11/19 09:32:52;;;;;;;39.47;19.35;;;;;;;4.13;100.00;98148.06;4992299;28;20065;-64
2021/11/19 09:35:20;;;;;;;39.83;19.33;;;;;;;4.29;100.00;98145.97;4992549;28;20037;-61
2021/11/19 09:37:48;;;;;;;40.50;20.15;;;;;;;4.41;100.00;98140.09;5003997;28;20128;-63
2021/11/19 09:40:15;;;;;;;41.53;18.67;;;;;;;4.42;100.00;98147.16;4988299;28;20141;-63
2021/11/19 09:43:05;;;;;;;37.83;19.77;;;;;;;4.36;100.00;98132.84;4993291;28;20044;-64
2021/11/19 09:45:49;;;;;;;40.17;18.70;;;;;;;4.11;100.00;98133.97;4998388;28;20106;-64
2021/11/19 09:48:36;;;;;;;43.78;18.80;;;;;;;3.95;100.00;98135.25;4987423;28;20514;-62
2021/11/19 09:51:20;;;;;;;43.88;20.27;;;;;;;4.08;100.00;98139.97;4993172;28;20172;-62
2021/11/19 09:54:20;;;;;;;37.97;19.20;;;;;;;4.28;100.00;98147.06;4991118;28;20046;-63
2021/11/19 09:56:58;;;;;;;33.25;17.33;;;;;;;4.43;100.00;98142.53;4993562;28;20092;-63
2021/11/19 09:59:43;;;;;;;32.38;17.48;;;;;;;4.48;100.00;98137.84;4988033;28;20826;-65
2021/11/19 10:02:36;;;;;;;35.38;16.85;;;;;;;4.53;100.00;98137.78;4986930;28;20103;-64
2021/11/19 10:05:42;;;;;;;38.47;19.20;;;;;;;4.40;100.00;98144.75;4997670;28;20034;-64
2021/11/19 10:08:29;;;;;;;37.53;19.27;;;;;;;4.40;100.00;98128.47;4986935;28;20034;-64
2021/11/19 10:10:58;;;;;;;35.25;18.35;;;;;;;4.46;100.00;98125.69;4994474;28;20038;-63
2021/11/19 10:13:37;;;;;;;41.67;18.75;;;;;;;4.57;100.00;98143.44;4988026;28;20050;-64
2021/11/19 10:16:02;;;;;;;34.22;17.63;;;;;;;4.53;100.00;98139.69;4988643;28;20058;-62
2021/11/19 10:18:46;;;;;;;36.50;17.55;;;;;;;4.45;100.00;98132.19;4994664;28;20042;-64
2021/11/19 10:21:16;;;;;;;35.72;17.83;;;;;;;4.58;100.00;98134.22;4989150;28;20106;-64
2021/11/19 10:23:47;;;;;;;35.67;18.05;;;;;;;4.60;100.00;98130.09;4993620;28;20042;-64
2021/11/19 10:26:23;;;;;;;43.13;17.42;;;;;;;4.54;100.00;98138.63;4983568;28;20045;-63
2021/11/19 10:28:57;;;;;;;33.83;16.38;;;;;;;4.37;100.00;98136.38;4993536;28;20042;-64
2021/11/19 10:31:24;;;;;;;37.08;17.60;;;;;;;4.28;100.00;98125.34;4986704;28;20467;-64
2021/11/19 10:34:08;;;;;;;41.60;17.50;;;;;;;4.10;100.00;98124.22;4995362;28;20045;-64
2021/11/19 10:36:40;;;;;;;36.92;17.85;;;;;;;4.31;100.00;98116.66;5009561;28;20042;-63
2021/11/19 10:39:17;;;;;;;35.83;17.90;;;;;;;4.42;100.00;98122.75;5005349;28;20046;-63
2021/11/19 10:42:11;;;;;;;34.30;17.42;;;;;;;4.39;100.00;98107.03;4994916;28;20046;-64
2021/11/19 10:44:58;;;;;;;34.25;17.52;;;;;;;4.39;100.00;98116.00;4989964;28;20038;-64
2021/11/19 10:47:57;;;;;;;35.72;16.95;;;;;;;4.25;100.00;98106.16;4986402;28;20742;-65
2021/11/19 10:50:51;;;;;;;36.72;18.02;;;;;;;4.09;100.00;98108.22;4989088;28;20053;-66
2021/11/19 10:53:37;;;;;;;34.60;17.25;;;;;;;4.09;100.00;98119.91;4989398;28;20042;-63
2021/11/19 10:56:14;;;;;;;36.33;17.30;;;;;;;4.29;100.00;98116.13;4989364;28;20070;-61
2021/11/19 10:58:45;;;;;;;33.90;17.67;;;;;;;4.43;100.00;98112.69;4994297;28;20102;-64
2021/11/19 11:01:36;;;;;;;33.20;16.75;;;;;;;4.38;100.00;98111.66;4985088;28;20038;-63
2021/11/19 11:04:29;;;;;;;31.30;16.35;;;;;;;4.64;100.00;98118.66;4988207;28;20062;-64
2021/11/19 11:07:19;;;;;;;30.67;16.60;;;;;;;4.77;100.00;98112.47;4999015;28;20638;-64
2021/11/19 11:10:00;;;;;;;32.30;15.93;;;;;;;4.90;100.00;98111.75;4983961;28;20042;-64
2021/11/19 11:12:30;;;;;;;28.73;14.73;;;;;;;4.84;100.00;98103.97;5001076;28;20054;-63
2021/11/19 11:15:16;;;;;;;30.63;15.40;;;;;;;4.96;100.00;98104.34;5005084;28;20062;-63
2021/11/19 11:18:11;;;;;;;30.10;15.52;;;;;;;4.78;100.00;98104.06;4989857;28;20045;-65
2021/11/19 11:20:48;;;;;;;32.10;15.55;;;;;;;5.02;100.00;98103.16;5002188;28;20108;-64
2021/11/19 11:23:26;;;;;;;26.02;14.20;;;;;;;4.97;100.00;98104.06;4998314;28;20045;-64
2021/11/19 11:26:05;;;;;;;28.58;15.98;;;;;;;4.96;100.00;98097.00;5003509;28;20041;-64
2021/11/19 11:28:40;;;;;;;;;;;;;;;4.82;100.00;98089.91;5001020;28;20050;-64
2021/11/19 11:31:27;;;;;;;35.45;16.20;;;;;;;5.04;100.00;98089.28;4988306;28;19918;-63